sensor_id;sensor_type;location;lat;lon;timestamp;P1;durP1;ratioP1;P2;durP2;ratioP2
31073;SDS011;17730;53.552;9.940;2022-09-30T00:00:45;10.13;;;7.97;;
31073;SDS011;17730;53.552;9.940;2022-09-30T00:03:12;9.98;;;7.72;;
31073;SDS011;17730;53.552;9.940;2022-09-30T00:05:38;12.45;;;8.07;;
31073;SDS011;17730;53.552;9.940;2022-09-30T00:08:03;9.95;;;7.53;;
31073;SDS011;17730;53.552;9.940;2022-09-30T00:10:29;12.90;;;7.65;;
31073;SDS011;17730;53.552;9.940;2022-09-30T00:12:54;9.48;;;7.55;;
31073;SDS011;17730;53.552;9.940;2022-09-30T00:15:22;10.35;;;7.68;;
31073;SDS011;17730;53.552;9.940;2022-09-30T00:17:48;10.73;;;7.88;;
31073;SDS011;17730;53.552;9.940;2022-09-30T00:20:14;13.60;;;8.88;;
31073;SDS011;17730;53.552;9.940;2022-09-30T00:22:40;12.38;;;8.75;;
31073;SDS011;17730;53.552;9.940;2022-09-30T00:25:06;14.60;;;9.45;;
31073;SDS011;17730;53.552;9.940;2022-09-30T00:27:31;14.40;;;8.80;;
31073;SDS011;17730;53.552;9.940;2022-09-30T00:29:57;11.25;;;8.95;;
31073;SDS011;17730;53.552;9.940;2022-09-30T00:32:23;13.70;;;9.85;;
31073;SDS011;17730;53.552;9.940;2022-09-30T00:34:48;11.05;;;9.55;;
31073;SDS011;17730;53.552;9.940;2022-09-30T00:37:14;13.35;;;9.70;;
31073;SDS011;17730;53.552;9.940;2022-09-30T00:39:40;15.48;;;9.18;;
31073;SDS011;17730;53.552;9.940;2022-09-30T00:42:09;12.73;;;9.52;;
31073;SDS011;17730;53.552;9.940;2022-09-30T00:44:51;15.35;;;10.02;;
31073;SDS011;17730;53.552;9.940;2022-09-30T00:49:57;12.52;;;9.57;;
31073;SDS011;17730;53.552;9.940;2022-09-30T00:52:26;16.42;;;10.23;;
31073;SDS011;17730;53.552;9.940;2022-09-30T00:54:52;16.33;;;10.85;;
31073;SDS011;17730;53.552;9.940;2022-09-30T00:57:19;14.10;;;10.30;;
31073;SDS011;17730;53.552;9.940;2022-09-30T00:59:47;15.57;;;11.07;;
31073;SDS011;17730;53.552;9.940;2022-09-30T01:02:15;12.98;;;9.75;;
31073;SDS011;17730;53.552;9.940;2022-09-30T01:04:41;13.85;;;10.70;;
31073;SDS011;17730;53.552;9.940;2022-09-30T01:07:09;14.77;;;11.68;;
31073;SDS011;17730;53.552;9.940;2022-09-30T01:09:36;15.02;;;11.80;;
31073;SDS011;17730;53.552;9.940;2022-09-30T01:12:14;14.85;;;11.20;;
31073;SDS011;17730;53.552;9.940;2022-09-30T01:14:43;17.27;;;12.88;;
31073;SDS011;17730;53.552;9.940;2022-09-30T01:19:57;17.17;;;12.55;;
31073;SDS011;17730;53.552;9.940;2022-09-30T01:31:17;19.25;;;12.88;;
31073;SDS011;17730;53.552;9.940;2022-09-30T01:34:11;18.35;;;13.90;;
31073;SDS011;17730;53.552;9.940;2022-09-30T01:36:46;20.33;;;13.75;;
31073;SDS011;17730;53.552;9.940;2022-09-30T01:42:27;19.67;;;14.57;;
31073;SDS011;17730;53.552;9.940;2022-09-30T01:45:17;20.42;;;14.93;;
31073;SDS011;17730;53.552;9.940;2022-09-30T01:47:58;21.38;;;15.68;;
31073;SDS011;17730;53.552;9.940;2022-09-30T01:55:51;23.85;;;15.80;;
31073;SDS011;17730;53.552;9.940;2022-09-30T01:58:41;19.65;;;15.15;;
31073;SDS011;17730;53.552;9.940;2022-09-30T02:02:01;26.27;;;16.02;;
31073;SDS011;17730;53.552;9.940;2022-09-30T02:04:30;22.13;;;15.48;;
31073;SDS011;17730;53.552;9.940;2022-09-30T02:07:00;22.92;;;14.93;;
31073;SDS011;17730;53.552;9.940;2022-09-30T02:12:08;23.00;;;16.52;;
31073;SDS011;17730;53.552;9.940;2022-09-30T02:14:39;21.45;;;15.32;;
31073;SDS011;17730;53.552;9.940;2022-09-30T02:17:11;24.20;;;16.50;;
31073;SDS011;17730;53.552;9.940;2022-09-30T02:19:45;25.02;;;16.63;;
31073;SDS011;17730;53.552;9.940;2022-09-30T02:24:51;24.13;;;16.38;;
31073;SDS011;17730;53.552;9.940;2022-09-30T02:27:23;25.92;;;16.27;;
31073;SDS011;17730;53.552;9.940;2022-09-30T02:29:57;22.73;;;16.10;;
31073;SDS011;17730;53.552;9.940;2022-09-30T02:32:29;25.02;;;16.23;;
31073;SDS011;17730;53.552;9.940;2022-09-30T02:34:59;23.57;;;16.50;;
31073;SDS011;17730;53.552;9.940;2022-09-30T02:37:31;21.65;;;16.08;;
31073;SDS011;17730;53.552;9.940;2022-09-30T02:40:05;24.50;;;16.02;;
31073;SDS011;17730;53.552;9.940;2022-09-30T02:42:34;24.42;;;15.60;;
31073;SDS011;17730;53.552;9.940;2022-09-30T02:45:02;24.15;;;16.80;;
31073;SDS011;17730;53.552;9.940;2022-09-30T02:50:34;24.85;;;16.10;;
31073;SDS011;17730;53.552;9.940;2022-09-30T02:53:21;24.50;;;15.48;;
31073;SDS011;17730;53.552;9.940;2022-09-30T02:58:35;23.02;;;15.82;;
31073;SDS011;17730;53.552;9.940;2022-09-30T03:01:04;24.15;;;15.80;;
31073;SDS011;17730;53.552;9.940;2022-09-30T03:03:36;21.85;;;15.48;;
31073;SDS011;17730;53.552;9.940;2022-09-30T03:06:08;23.33;;;14.93;;
31073;SDS011;17730;53.552;9.940;2022-09-30T03:08:34;22.55;;;14.85;;
31073;SDS011;17730;53.552;9.940;2022-09-30T03:11:00;18.60;;;13.82;;
31073;SDS011;17730;53.552;9.940;2022-09-30T03:13:35;21.08;;;15.70;;
31073;SDS011;17730;53.552;9.940;2022-09-30T03:29:42;24.25;;;13.65;;
31073;SDS011;17730;53.552;9.940;2022-09-30T03:40:14;20.50;;;14.73;;
31073;SDS011;17730;53.552;9.940;2022-09-30T03:42:52;20.27;;;13.43;;
31073;SDS011;17730;53.552;9.940;2022-09-30T03:45:29;25.70;;;15.05;;
31073;SDS011;17730;53.552;9.940;2022-09-30T03:48:00;23.90;;;15.18;;
31073;SDS011;17730;53.552;9.940;2022-09-30T03:50:29;21.98;;;14.35;;
31073;SDS011;17730;53.552;9.940;2022-09-30T03:52:57;22.50;;;15.35;;
31073;SDS011;17730;53.552;9.940;2022-09-30T03:55:23;23.92;;;15.35;;
31073;SDS011;17730;53.552;9.940;2022-09-30T03:57:50;28.48;;;16.25;;
31073;SDS011;17730;53.552;9.940;2022-09-30T04:00:16;23.38;;;15.32;;
31073;SDS011;17730;53.552;9.940;2022-09-30T04:02:42;25.55;;;15.95;;
31073;SDS011;17730;53.552;9.940;2022-09-30T04:05:09;22.63;;;16.75;;
31073;SDS011;17730;53.552;9.940;2022-09-30T04:07:35;22.42;;;16.55;;
31073;SDS011;17730;53.552;9.940;2022-09-30T04:10:00;24.08;;;16.98;;
31073;SDS011;17730;53.552;9.940;2022-09-30T04:12:26;21.30;;;16.52;;
31073;SDS011;17730;53.552;9.940;2022-09-30T04:14:52;28.02;;;16.55;;
31073;SDS011;17730;53.552;9.940;2022-09-30T04:17:17;23.38;;;16.05;;
31073;SDS011;17730;53.552;9.940;2022-09-30T04:19:43;21.70;;;16.15;;
31073;SDS011;17730;53.552;9.940;2022-09-30T04:22:08;21.30;;;15.27;;
31073;SDS011;17730;53.552;9.940;2022-09-30T04:24:34;25.33;;;16.38;;
31073;SDS011;17730;53.552;9.940;2022-09-30T04:27:00;22.90;;;16.40;;
31073;SDS011;17730;53.552;9.940;2022-09-30T04:29:27;23.15;;;16.45;;
31073;SDS011;17730;53.552;9.940;2022-09-30T04:31:53;24.10;;;16.25;;
31073;SDS011;17730;53.552;9.940;2022-09-30T04:34:18;21.33;;;15.90;;
31073;SDS011;17730;53.552;9.940;2022-09-30T04:36:44;22.17;;;15.75;;
31073;SDS011;17730;53.552;9.940;2022-09-30T04:39:10;24.60;;;16.30;;
31073;SDS011;17730;53.552;9.940;2022-09-30T04:41:35;27.35;;;15.68;;
31073;SDS011;17730;53.552;9.940;2022-09-30T04:44:02;26.52;;;16.38;;
31073;SDS011;17730;53.552;9.940;2022-09-30T04:46:31;22.52;;;15.80;;
31073;SDS011;17730;53.552;9.940;2022-09-30T04:48:58;24.90;;;15.93;;
31073;SDS011;17730;53.552;9.940;2022-09-30T04:51:24;21.05;;;16.67;;
31073;SDS011;17730;53.552;9.940;2022-09-30T04:53:50;30.08;;;17.98;;
31073;SDS011;17730;53.552;9.940;2022-09-30T04:56:15;24.33;;;16.60;;
31073;SDS011;17730;53.552;9.940;2022-09-30T04:58:44;24.90;;;17.52;;
31073;SDS011;17730;53.552;9.940;2022-09-30T05:01:11;25.20;;;16.42;;
31073;SDS011;17730;53.552;9.940;2022-09-30T05:03:39;26.70;;;17.42;;
31073;SDS011;17730;53.552;9.940;2022-09-30T05:06:06;24.42;;;16.92;;
31073;SDS011;17730;53.552;9.940;2022-09-30T05:08:32;21.00;;;16.52;;
31073;SDS011;17730;53.552;9.940;2022-09-30T05:10:59;21.45;;;15.80;;
31073;SDS011;17730;53.552;9.940;2022-09-30T05:13:30;21.92;;;16.35;;
31073;SDS011;17730;53.552;9.940;2022-09-30T05:15:59;26.52;;;17.15;;
31073;SDS011;17730;53.552;9.940;2022-09-30T05:18:25;24.30;;;16.80;;
31073;SDS011;17730;53.552;9.940;2022-09-30T05:20:51;23.67;;;16.98;;
31073;SDS011;17730;53.552;9.940;2022-09-30T05:23:18;27.23;;;16.77;;
31073;SDS011;17730;53.552;9.940;2022-09-30T05:25:45;26.02;;;17.23;;
31073;SDS011;17730;53.552;9.940;2022-09-30T05:28:11;22.13;;;16.00;;
31073;SDS011;17730;53.552;9.940;2022-09-30T05:30:37;27.33;;;17.98;;
31073;SDS011;17730;53.552;9.940;2022-09-30T05:33:05;24.92;;;17.40;;
31073;SDS011;17730;53.552;9.940;2022-09-30T05:35:31;24.17;;;18.08;;
31073;SDS011;17730;53.552;9.940;2022-09-30T05:37:58;25.85;;;17.17;;
31073;SDS011;17730;53.552;9.940;2022-09-30T05:40:24;23.40;;;17.70;;
31073;SDS011;17730;53.552;9.940;2022-09-30T05:42:49;23.67;;;16.38;;
31073;SDS011;17730;53.552;9.940;2022-09-30T05:45:15;27.52;;;18.70;;
31073;SDS011;17730;53.552;9.940;2022-09-30T05:47:41;26.88;;;19.33;;
31073;SDS011;17730;53.552;9.940;2022-09-30T05:50:06;24.40;;;18.80;;
31073;SDS011;17730;53.552;9.940;2022-09-30T05:52:32;23.25;;;17.48;;
31073;SDS011;17730;53.552;9.940;2022-09-30T05:54:58;24.08;;;18.13;;
31073;SDS011;17730;53.552;9.940;2022-09-30T05:57:29;26.35;;;18.15;;
31073;SDS011;17730;53.552;9.940;2022-09-30T05:59:55;29.60;;;18.77;;
31073;SDS011;17730;53.552;9.940;2022-09-30T06:02:21;24.67;;;18.05;;
31073;SDS011;17730;53.552;9.940;2022-09-30T06:04:47;22.90;;;17.50;;
31073;SDS011;17730;53.552;9.940;2022-09-30T06:07:14;24.25;;;17.52;;
31073;SDS011;17730;53.552;9.940;2022-09-30T06:09:40;24.60;;;17.67;;
31073;SDS011;17730;53.552;9.940;2022-09-30T06:12:06;27.45;;;17.35;;
31073;SDS011;17730;53.552;9.940;2022-09-30T06:14:32;26.38;;;17.10;;
31073;SDS011;17730;53.552;9.940;2022-09-30T06:16:58;25.85;;;17.35;;
31073;SDS011;17730;53.552;9.940;2022-09-30T06:19:26;23.60;;;16.83;;
31073;SDS011;17730;53.552;9.940;2022-09-30T06:21:54;25.40;;;17.02;;
31073;SDS011;17730;53.552;9.940;2022-09-30T06:24:20;24.88;;;16.52;;
31073;SDS011;17730;53.552;9.940;2022-09-30T06:26:45;26.38;;;16.77;;
31073;SDS011;17730;53.552;9.940;2022-09-30T06:29:11;22.05;;;16.83;;
31073;SDS011;17730;53.552;9.940;2022-09-30T06:31:37;21.98;;;16.05;;
31073;SDS011;17730;53.552;9.940;2022-09-30T06:34:03;25.23;;;14.98;;
31073;SDS011;17730;53.552;9.940;2022-09-30T06:36:29;24.73;;;15.70;;
31073;SDS011;17730;53.552;9.940;2022-09-30T06:38:56;21.63;;;13.90;;
31073;SDS011;17730;53.552;9.940;2022-09-30T06:41:21;19.33;;;13.60;;
31073;SDS011;17730;53.552;9.940;2022-09-30T06:43:51;26.10;;;13.77;;
31073;SDS011;17730;53.552;9.940;2022-09-30T06:46:17;19.83;;;14.07;;
31073;SDS011;17730;53.552;9.940;2022-09-30T06:48:43;18.33;;;13.95;;
31073;SDS011;17730;53.552;9.940;2022-09-30T06:51:08;21.90;;;13.45;;
31073;SDS011;17730;53.552;9.940;2022-09-30T06:53:35;19.98;;;12.85;;
31073;SDS011;17730;53.552;9.940;2022-09-30T06:56:04;78.38;;;58.28;;
31073;SDS011;17730;53.552;9.940;2022-09-30T06:58:30;17.88;;;12.68;;
31073;SDS011;17730;53.552;9.940;2022-09-30T07:00:57;20.70;;;12.30;;
31073;SDS011;17730;53.552;9.940;2022-09-30T07:03:30;18.83;;;12.20;;
31073;SDS011;17730;53.552;9.940;2022-09-30T07:05:59;19.25;;;12.70;;
31073;SDS011;17730;53.552;9.940;2022-09-30T07:08:27;21.75;;;12.23;;
31073;SDS011;17730;53.552;9.940;2022-09-30T07:10:55;20.15;;;11.77;;
31073;SDS011;17730;53.552;9.940;2022-09-30T07:13:25;16.92;;;10.63;;
31073;SDS011;17730;53.552;9.940;2022-09-30T07:15:51;25.63;;;11.68;;
31073;SDS011;17730;53.552;9.940;2022-09-30T07:18:18;17.48;;;11.38;;
31073;SDS011;17730;53.552;9.940;2022-09-30T07:20:48;14.80;;;10.07;;
31073;SDS011;17730;53.552;9.940;2022-09-30T07:23:14;19.27;;;10.85;;
31073;SDS011;17730;53.552;9.940;2022-09-30T07:25:47;13.60;;;10.13;;
31073;SDS011;17730;53.552;9.940;2022-09-30T07:28:25;14.45;;;10.13;;
31073;SDS011;17730;53.552;9.940;2022-09-30T07:30:56;27.10;;;10.65;;
31073;SDS011;17730;53.552;9.940;2022-09-30T07:33:24;13.43;;;10.15;;
31073;SDS011;17730;53.552;9.940;2022-09-30T07:35:54;18.40;;;11.27;;
31073;SDS011;17730;53.552;9.940;2022-09-30T07:38:22;20.83;;;9.40;;
31073;SDS011;17730;53.552;9.940;2022-09-30T07:40:53;15.02;;;9.48;;
31073;SDS011;17730;53.552;9.940;2022-09-30T07:43:29;16.50;;;10.00;;
31073;SDS011;17730;53.552;9.940;2022-09-30T07:46:11;12.93;;;9.45;;
31073;SDS011;17730;53.552;9.940;2022-09-30T07:48:44;14.90;;;9.40;;
31073;SDS011;17730;53.552;9.940;2022-09-30T07:56:11;12.60;;;9.85;;
31073;SDS011;17730;53.552;9.940;2022-09-30T07:58:38;13.18;;;9.15;;
31073;SDS011;17730;53.552;9.940;2022-09-30T08:01:04;16.25;;;9.38;;
31073;SDS011;17730;53.552;9.940;2022-09-30T08:03:34;13.88;;;9.10;;
31073;SDS011;17730;53.552;9.940;2022-09-30T08:06:07;14.88;;;9.32;;
31073;SDS011;17730;53.552;9.940;2022-09-30T08:08:34;12.82;;;8.05;;
31073;SDS011;17730;53.552;9.940;2022-09-30T08:11:00;12.75;;;8.57;;
31073;SDS011;17730;53.552;9.940;2022-09-30T08:13:27;12.13;;;8.65;;
31073;SDS011;17730;53.552;9.940;2022-09-30T08:15:53;12.40;;;8.18;;
31073;SDS011;17730;53.552;9.940;2022-09-30T08:18:19;17.02;;;8.38;;
31073;SDS011;17730;53.552;9.940;2022-09-30T08:20:45;18.30;;;7.68;;
31073;SDS011;17730;53.552;9.940;2022-09-30T08:23:10;10.38;;;7.22;;
31073;SDS011;17730;53.552;9.940;2022-09-30T08:25:36;10.60;;;6.50;;
31073;SDS011;17730;53.552;9.940;2022-09-30T08:28:02;11.05;;;6.90;;
31073;SDS011;17730;53.552;9.940;2022-09-30T08:30:27;9.75;;;6.55;;
31073;SDS011;17730;53.552;9.940;2022-09-30T08:32:53;11.52;;;6.53;;
31073;SDS011;17730;53.552;9.940;2022-09-30T08:35:19;8.85;;;6.38;;
31073;SDS011;17730;53.552;9.940;2022-09-30T08:37:44;11.80;;;6.22;;
31073;SDS011;17730;53.552;9.940;2022-09-30T08:40:32;8.23;;;6.13;;
31073;SDS011;17730;53.552;9.940;2022-09-30T08:43:01;10.13;;;6.32;;
31073;SDS011;17730;53.552;9.940;2022-09-30T08:45:39;8.13;;;5.22;;
31073;SDS011;17730;53.552;9.940;2022-09-30T08:51:16;9.10;;;5.85;;
31073;SDS011;17730;53.552;9.940;2022-09-30T08:53:53;11.82;;;5.63;;
31073;SDS011;17730;53.552;9.940;2022-09-30T08:56:25;9.95;;;5.53;;
31073;SDS011;17730;53.552;9.940;2022-09-30T08:58:56;7.43;;;6.00;;
31073;SDS011;17730;53.552;9.940;2022-09-30T09:01:46;8.50;;;5.03;;
31073;SDS011;17730;53.552;9.940;2022-09-30T09:04:16;9.05;;;5.47;;
31073;SDS011;17730;53.552;9.940;2022-09-30T09:06:54;6.88;;;5.05;;
31073;SDS011;17730;53.552;9.940;2022-09-30T09:12:43;10.13;;;5.25;;
31073;SDS011;17730;53.552;9.940;2022-09-30T09:20:54;9.32;;;5.43;;
31073;SDS011;17730;53.552;9.940;2022-09-30T09:23:21;10.73;;;6.50;;
31073;SDS011;17730;53.552;9.940;2022-09-30T09:25:48;9.10;;;5.85;;
31073;SDS011;17730;53.552;9.940;2022-09-30T09:30:46;8.88;;;5.22;;
31073;SDS011;17730;53.552;9.940;2022-09-30T09:33:20;6.13;;;5.20;;
31073;SDS011;17730;53.552;9.940;2022-09-30T09:35:53;8.85;;;5.00;;
31073;SDS011;17730;53.552;9.940;2022-09-30T09:41:33;7.85;;;5.38;;
31073;SDS011;17730;53.552;9.940;2022-09-30T09:44:09;9.60;;;6.15;;
31073;SDS011;17730;53.552;9.940;2022-09-30T09:46:58;8.30;;;5.68;;
31073;SDS011;17730;53.552;9.940;2022-09-30T09:49:33;11.13;;;6.75;;
31073;SDS011;17730;53.552;9.940;2022-09-30T09:54:29;8.32;;;5.63;;
31073;SDS011;17730;53.552;9.940;2022-09-30T09:57:08;9.65;;;5.80;;
31073;SDS011;17730;53.552;9.940;2022-09-30T09:59:54;7.82;;;5.18;;
31073;SDS011;17730;53.552;9.940;2022-09-30T10:02:26;7.38;;;5.00;;
31073;SDS011;17730;53.552;9.940;2022-09-30T10:04:54;10.60;;;4.80;;
31073;SDS011;17730;53.552;9.940;2022-09-30T10:07:31;7.93;;;4.82;;
31073;SDS011;17730;53.552;9.940;2022-09-30T10:10:05;7.53;;;4.43;;
31073;SDS011;17730;53.552;9.940;2022-09-30T10:12:42;5.30;;;3.85;;
31073;SDS011;17730;53.552;9.940;2022-09-30T10:15:19;5.28;;;3.50;;
31073;SDS011;17730;53.552;9.940;2022-09-30T10:17:51;8.07;;;4.65;;
31073;SDS011;17730;53.552;9.940;2022-09-30T10:20:31;9.95;;;4.85;;
31073;SDS011;17730;53.552;9.940;2022-09-30T10:23:01;5.95;;;4.55;;
31073;SDS011;17730;53.552;9.940;2022-09-30T10:25:46;6.50;;;3.90;;
31073;SDS011;17730;53.552;9.940;2022-09-30T10:28:24;20.90;;;4.32;;
31073;SDS011;17730;53.552;9.940;2022-09-30T10:30:56;17.73;;;5.10;;
31073;SDS011;17730;53.552;9.940;2022-09-30T10:33:30;8.15;;;5.05;;
31073;SDS011;17730;53.552;9.940;2022-09-30T10:36:03;7.47;;;4.03;;
31073;SDS011;17730;53.552;9.940;2022-09-30T10:38:29;9.43;;;4.68;;
31073;SDS011;17730;53.552;9.940;2022-09-30T10:40:58;10.77;;;4.47;;
31073;SDS011;17730;53.552;9.940;2022-09-30T10:43:27;8.43;;;3.53;;
31073;SDS011;17730;53.552;9.940;2022-09-30T10:45:57;5.47;;;2.95;;
31073;SDS011;17730;53.552;9.940;2022-09-30T10:48:27;10.13;;;3.15;;
31073;SDS011;17730;53.552;9.940;2022-09-30T10:50:57;7.50;;;2.90;;
31073;SDS011;17730;53.552;9.940;2022-09-30T10:53:27;10.25;;;4.20;;
31073;SDS011;17730;53.552;9.940;2022-09-30T10:55:59;6.53;;;3.58;;
31073;SDS011;17730;53.552;9.940;2022-09-30T10:58:42;5.53;;;3.05;;
31073;SDS011;17730;53.552;9.940;2022-09-30T11:04:10;5.05;;;2.58;;
31073;SDS011;17730;53.552;9.940;2022-09-30T11:06:53;5.80;;;2.60;;
31073;SDS011;17730;53.552;9.940;2022-09-30T11:09:34;5.30;;;2.70;;
31073;SDS011;17730;53.552;9.940;2022-09-30T11:25:15;2.97;;;2.08;;
31073;SDS011;17730;53.552;9.940;2022-09-30T11:59:12;3.42;;;2.80;;
31073;SDS011;17730;53.552;9.940;2022-09-30T12:01:46;3.63;;;2.95;;
31073;SDS011;17730;53.552;9.940;2022-09-30T12:04:18;4.70;;;2.50;;
31073;SDS011;17730;53.552;9.940;2022-09-30T12:09:41;5.20;;;2.90;;
31073;SDS011;17730;53.552;9.940;2022-09-30T12:12:13;6.10;;;3.63;;
31073;SDS011;17730;53.552;9.940;2022-09-30T12:14:46;5.65;;;3.22;;
31073;SDS011;17730;53.552;9.940;2022-09-30T12:17:27;6.30;;;3.28;;
31073;SDS011;17730;53.552;9.940;2022-09-30T12:20:06;5.82;;;3.72;;
31073;SDS011;17730;53.552;9.940;2022-09-30T12:22:50;11.20;;;6.20;;
31073;SDS011;17730;53.552;9.940;2022-09-30T12:25:28;9.55;;;5.47;;
31073;SDS011;17730;53.552;9.940;2022-09-30T12:30:53;7.07;;;4.78;;
31073;SDS011;17730;53.552;9.940;2022-09-30T12:33:32;9.07;;;5.85;;
31073;SDS011;17730;53.552;9.940;2022-09-30T12:45:08;6.03;;;4.70;;
31073;SDS011;17730;53.552;9.940;2022-09-30T12:47:44;9.45;;;5.72;;
31073;SDS011;17730;53.552;9.940;2022-09-30T12:50:13;8.82;;;5.20;;
31073;SDS011;17730;53.552;9.940;2022-09-30T12:52:44;11.63;;;5.40;;
31073;SDS011;17730;53.552;9.940;2022-09-30T12:55:19;6.50;;;5.63;;
31073;SDS011;17730;53.552;9.940;2022-09-30T12:57:45;11.20;;;5.75;;
31073;SDS011;17730;53.552;9.940;2022-09-30T13:00:17;7.90;;;5.07;;
31073;SDS011;17730;53.552;9.940;2022-09-30T13:02:46;9.88;;;4.80;;
31073;SDS011;17730;53.552;9.940;2022-09-30T13:10:30;10.55;;;4.95;;
31073;SDS011;17730;53.552;9.940;2022-09-30T13:15:41;12.25;;;7.00;;
31073;SDS011;17730;53.552;9.940;2022-09-30T13:26:30;9.73;;;4.28;;
31073;SDS011;17730;53.552;9.940;2022-09-30T13:31:29;6.95;;;4.55;;
31073;SDS011;17730;53.552;9.940;2022-09-30T13:36:37;9.60;;;4.75;;
31073;SDS011;17730;53.552;9.940;2022-09-30T13:52:53;9.35;;;5.43;;
31073;SDS011;17730;53.552;9.940;2022-09-30T13:55:26;8.85;;;4.68;;
31073;SDS011;17730;53.552;9.940;2022-09-30T14:01:12;8.60;;;5.35;;
31073;SDS011;17730;53.552;9.940;2022-09-30T14:12:09;9.07;;;5.57;;
31073;SDS011;17730;53.552;9.940;2022-09-30T14:17:33;13.60;;;6.70;;
31073;SDS011;17730;53.552;9.940;2022-09-30T14:22:50;12.57;;;7.22;;
31073;SDS011;17730;53.552;9.940;2022-09-30T14:25:17;8.93;;;6.10;;
31073;SDS011;17730;53.552;9.940;2022-09-30T14:27:50;9.32;;;6.22;;
31073;SDS011;17730;53.552;9.940;2022-09-30T14:30:36;9.25;;;6.88;;
31073;SDS011;17730;53.552;9.940;2022-09-30T14:33:09;14.20;;;7.88;;
31073;SDS011;17730;53.552;9.940;2022-09-30T14:35:51;11.60;;;7.07;;
31073;SDS011;17730;53.552;9.940;2022-09-30T14:38:19;14.80;;;6.47;;
31073;SDS011;17730;53.552;9.940;2022-09-30T14:40:52;11.13;;;6.90;;
31073;SDS011;17730;53.552;9.940;2022-09-30T14:43:22;11.88;;;6.68;;
31073;SDS011;17730;53.552;9.940;2022-09-30T14:45:53;10.82;;;6.63;;
31073;SDS011;17730;53.552;9.940;2022-09-30T14:48:21;10.10;;;6.85;;
31073;SDS011;17730;53.552;9.940;2022-09-30T14:51:03;9.13;;;6.40;;
31073;SDS011;17730;53.552;9.940;2022-09-30T14:53:34;8.50;;;6.28;;
31073;SDS011;17730;53.552;9.940;2022-09-30T14:56:21;10.05;;;6.68;;
31073;SDS011;17730;53.552;9.940;2022-09-30T14:58:51;9.70;;;6.43;;
31073;SDS011;17730;53.552;9.940;2022-09-30T15:01:17;12.07;;;6.22;;
31073;SDS011;17730;53.552;9.940;2022-09-30T15:03:47;12.18;;;7.00;;
31073;SDS011;17730;53.552;9.940;2022-09-30T15:06:18;10.18;;;6.70;;
31073;SDS011;17730;53.552;9.940;2022-09-30T15:08:50;11.00;;;7.30;;
31073;SDS011;17730;53.552;9.940;2022-09-30T15:11:23;10.77;;;6.25;;
31073;SDS011;17730;53.552;9.940;2022-09-30T15:13:56;11.57;;;6.05;;
31073;SDS011;17730;53.552;9.940;2022-09-30T15:16:25;12.63;;;6.00;;
31073;SDS011;17730;53.552;9.940;2022-09-30T15:18:55;13.48;;;6.38;;
31073;SDS011;17730;53.552;9.940;2022-09-30T15:21:21;9.00;;;5.65;;
31073;SDS011;17730;53.552;9.940;2022-09-30T15:23:50;8.32;;;5.97;;
31073;SDS011;17730;53.552;9.940;2022-09-30T15:26:17;9.63;;;5.78;;
31073;SDS011;17730;53.552;9.940;2022-09-30T15:28:45;9.88;;;6.20;;
31073;SDS011;17730;53.552;9.940;2022-09-30T15:33:46;13.13;;;6.40;;
31073;SDS011;17730;53.552;9.940;2022-09-30T15:36:15;6.97;;;5.03;;
31073;SDS011;17730;53.552;9.940;2022-09-30T15:38:49;9.35;;;5.00;;
31073;SDS011;17730;53.552;9.940;2022-09-30T15:41:16;16.27;;;6.05;;
31073;SDS011;17730;53.552;9.940;2022-09-30T15:43:45;10.65;;;5.13;;
31073;SDS011;17730;53.552;9.940;2022-09-30T15:48:52;7.38;;;5.22;;
31073;SDS011;17730;53.552;9.940;2022-09-30T15:53:49;9.57;;;5.28;;
31073;SDS011;17730;53.552;9.940;2022-09-30T15:56:16;12.00;;;6.38;;
31073;SDS011;17730;53.552;9.940;2022-09-30T15:59:01;14.13;;;6.60;;
31073;SDS011;17730;53.552;9.940;2022-09-30T16:06:45;11.98;;;6.65;;
31073;SDS011;17730;53.552;9.940;2022-09-30T16:14:25;8.80;;;6.13;;
31073;SDS011;17730;53.552;9.940;2022-09-30T16:16:53;8.85;;;6.03;;
31073;SDS011;17730;53.552;9.940;2022-09-30T16:19:21;12.52;;;5.82;;
31073;SDS011;17730;53.552;9.940;2022-09-30T16:21:50;14.85;;;6.03;;
31073;SDS011;17730;53.552;9.940;2022-09-30T16:26:50;9.40;;;5.63;;
31073;SDS011;17730;53.552;9.940;2022-09-30T16:29:18;10.15;;;6.00;;
31073;SDS011;17730;53.552;9.940;2022-09-30T16:31:44;11.25;;;6.22;;
31073;SDS011;17730;53.552;9.940;2022-09-30T16:34:20;10.13;;;6.18;;
31073;SDS011;17730;53.552;9.940;2022-09-30T16:36:48;12.82;;;6.18;;
31073;SDS011;17730;53.552;9.940;2022-09-30T16:39:14;10.02;;;5.60;;
31073;SDS011;17730;53.552;9.940;2022-09-30T16:41:41;15.95;;;6.45;;
31073;SDS011;17730;53.552;9.940;2022-09-30T16:44:07;8.20;;;6.00;;
31073;SDS011;17730;53.552;9.940;2022-09-30T16:46:34;15.80;;;7.65;;
31073;SDS011;17730;53.552;9.940;2022-09-30T16:49:16;20.20;;;8.75;;
31073;SDS011;17730;53.552;9.940;2022-09-30T16:51:43;11.82;;;6.65;;
31073;SDS011;17730;53.552;9.940;2022-09-30T16:54:09;9.73;;;6.30;;
31073;SDS011;17730;53.552;9.940;2022-09-30T16:56:35;12.13;;;7.40;;
31073;SDS011;17730;53.552;9.940;2022-09-30T16:59:01;13.25;;;6.78;;
31073;SDS011;17730;53.552;9.940;2022-09-30T17:01:27;12.32;;;6.75;;
31073;SDS011;17730;53.552;9.940;2022-09-30T17:03:54;12.05;;;6.97;;
31073;SDS011;17730;53.552;9.940;2022-09-30T17:06:27;14.80;;;6.53;;
31073;SDS011;17730;53.552;9.940;2022-09-30T17:08:54;12.45;;;7.20;;
31073;SDS011;17730;53.552;9.940;2022-09-30T17:11:24;15.02;;;7.90;;
31073;SDS011;17730;53.552;9.940;2022-09-30T17:13:53;11.40;;;6.90;;
31073;SDS011;17730;53.552;9.940;2022-09-30T17:16:19;16.67;;;7.10;;
31073;SDS011;17730;53.552;9.940;2022-09-30T17:18:47;13.73;;;7.57;;
31073;SDS011;17730;53.552;9.940;2022-09-30T17:21:15;12.13;;;7.38;;
31073;SDS011;17730;53.552;9.940;2022-09-30T17:23:45;12.85;;;7.22;;
31073;SDS011;17730;53.552;9.940;2022-09-30T17:26:11;15.82;;;8.68;;
31073;SDS011;17730;53.552;9.940;2022-09-30T17:28:36;16.83;;;8.45;;
31073;SDS011;17730;53.552;9.940;2022-09-30T17:31:02;19.10;;;7.20;;
31073;SDS011;17730;53.552;9.940;2022-09-30T17:33:29;13.05;;;8.00;;
31073;SDS011;17730;53.552;9.940;2022-09-30T17:35:56;11.13;;;6.70;;
31073;SDS011;17730;53.552;9.940;2022-09-30T17:38:26;16.75;;;7.13;;
31073;SDS011;17730;53.552;9.940;2022-09-30T17:40:52;14.88;;;8.15;;
31073;SDS011;17730;53.552;9.940;2022-09-30T17:43:37;12.77;;;7.47;;
31073;SDS011;17730;53.552;9.940;2022-09-30T17:46:03;14.48;;;7.85;;
31073;SDS011;17730;53.552;9.940;2022-09-30T17:48:29;17.63;;;7.15;;
31073;SDS011;17730;53.552;9.940;2022-09-30T17:50:55;12.20;;;6.80;;
31073;SDS011;17730;53.552;9.940;2022-09-30T17:53:21;12.55;;;7.38;;
31073;SDS011;17730;53.552;9.940;2022-09-30T17:55:47;11.45;;;7.22;;
31073;SDS011;17730;53.552;9.940;2022-09-30T17:58:25;13.52;;;8.32;;
31073;SDS011;17730;53.552;9.940;2022-09-30T18:00:51;14.82;;;7.15;;
31073;SDS011;17730;53.552;9.940;2022-09-30T18:03:17;12.32;;;7.28;;
31073;SDS011;17730;53.552;9.940;2022-09-30T18:05:43;11.82;;;6.88;;
31073;SDS011;17730;53.552;9.940;2022-09-30T18:08:12;20.15;;;8.48;;
31073;SDS011;17730;53.552;9.940;2022-09-30T18:10:38;11.50;;;6.80;;
31073;SDS011;17730;53.552;9.940;2022-09-30T18:13:04;19.25;;;7.97;;
31073;SDS011;17730;53.552;9.940;2022-09-30T18:15:30;10.27;;;6.50;;
31073;SDS011;17730;53.552;9.940;2022-09-30T18:17:55;19.05;;;8.48;;
31073;SDS011;17730;53.552;9.940;2022-09-30T18:20:21;16.75;;;6.93;;
31073;SDS011;17730;53.552;9.940;2022-09-30T18:22:47;27.75;;;6.65;;
31073;SDS011;17730;53.552;9.940;2022-09-30T18:25:13;30.08;;;7.68;;